createdAt,value
2017-05-21T00:00:58.695Z,0
2017-05-21T00:02:08.968Z,0
2017-05-21T00:03:18.971Z,0
2017-05-21T00:04:29.259Z,0
2017-05-21T00:05:39.603Z,0
2017-05-21T00:06:49.588Z,0
2017-05-21T00:08:00.122Z,0
2017-05-21T00:09:10.401Z,0
2017-05-21T00:10:20.684Z,0
2017-05-21T00:11:30.962Z,0
2017-05-21T00:12:41.308Z,0
2017-05-21T00:13:51.849Z,0
2017-05-21T00:15:02.130Z,0
2017-05-21T00:16:12.410Z,0
2017-05-21T00:17:22.695Z,0
2017-05-21T00:18:33.010Z,0
2017-05-21T00:19:43.568Z,0
2017-05-21T00:20:53.711Z,0
2017-05-21T00:22:03.997Z,0
2017-05-21T00:23:14.281Z,0
2017-05-21T00:24:24.877Z,0
2017-05-21T00:25:35.417Z,0
2017-05-21T00:26:45.386Z,0
2017-05-21T00:27:55.681Z,0
2017-05-21T00:29:05.648Z,0
2017-05-21T00:30:15.620Z,0
2017-05-21T00:31:25.843Z,0
2017-05-21T00:32:35.808Z,0
2017-05-21T00:33:46.101Z,0
2017-05-21T00:34:56.071Z,0
2017-05-21T00:36:06.363Z,0
2017-05-21T00:37:16.581Z,0
2017-05-21T00:38:26.865Z,0
2017-05-21T00:39:36.837Z,0
2017-05-21T00:40:47.127Z,0
2017-05-21T00:41:57.403Z,0
2017-05-21T00:43:07.934Z,0
2017-05-21T00:44:17.909Z,0
2017-05-21T00:45:27.981Z,0
2017-05-21T00:46:37.957Z,0
2017-05-21T00:47:47.929Z,0
2017-05-21T00:48:58.522Z,0
2017-05-21T00:50:08.801Z,0
2017-05-21T00:51:19.075Z,0
2017-05-21T00:52:28.735Z,0
2017-05-21T00:53:39.020Z,0
2017-05-21T00:54:48.935Z,0
2017-05-21T00:55:59.211Z,0
2017-05-21T00:57:09.502Z,0
2017-05-21T00:58:19.787Z,0
2017-05-21T00:59:29.819Z,0
2017-05-21T01:00:40.342Z,0
2017-05-21T01:01:50.306Z,0
2017-05-21T01:03:00.271Z,0
2017-05-21T01:04:10.550Z,0
2017-05-21T01:05:20.835Z,0
2017-05-21T01:06:31.353Z,0
2017-05-21T01:07:41.801Z,0
2017-05-21T01:08:51.467Z,0
2017-05-21T01:10:01.442Z,0
2017-05-21T01:11:11.721Z,0
2017-05-21T01:12:22.246Z,0
2017-05-21T01:13:32.210Z,0
2017-05-21T01:14:42.491Z,0
2017-05-21T01:15:52.781Z,0
2017-05-21T01:17:03.060Z,0
2017-05-21T01:18:13.588Z,0
2017-05-21T01:19:23.878Z,0
2017-05-21T01:20:34.157Z,0
2017-05-21T01:21:44.453Z,0
2017-05-21T01:22:54.740Z,0
2017-05-21T01:24:05.264Z,0
2017-05-21T01:25:15.546Z,0
2017-05-21T01:26:25.924Z,0
2017-05-21T01:27:36.211Z,0
2017-05-21T01:28:46.184Z,0
2017-05-21T01:29:56.716Z,0
2017-05-21T01:31:07.009Z,0
2017-05-21T01:32:17.295Z,0
2017-05-21T01:33:27.572Z,0
2017-05-21T01:34:37.548Z,0
2017-05-21T01:35:48.080Z,0
2017-05-21T01:36:58.357Z,0
2017-05-21T01:38:08.645Z,0
2017-05-21T01:39:18.618Z,0
2017-05-21T01:40:28.921Z,0
2017-05-21T01:41:39.139Z,0
2017-05-21T01:42:49.428Z,0
2017-05-21T01:43:59.964Z,0
2017-05-21T01:45:10.241Z,0
2017-05-21T01:46:20.534Z,0
2017-05-21T01:47:30.756Z,0
2017-05-21T01:48:40.409Z,0
2017-05-21T01:49:50.700Z,0
2017-05-21T01:51:00.988Z,0
2017-05-21T01:52:11.267Z,0
2017-05-21T01:53:21.491Z,0
2017-05-21T01:54:31.768Z,0
2017-05-21T01:55:42.051Z,0
2017-05-21T01:56:52.326Z,0
2017-05-21T01:58:02.616Z,0
2017-05-21T01:59:13.152Z,0
2017-05-21T02:00:23.439Z,0
2017-05-21T02:01:33.409Z,0
2017-05-21T02:02:43.395Z,0
2017-05-21T02:03:53.677Z,0
2017-05-21T02:05:04.207Z,0
2017-05-21T02:06:14.488Z,0
2017-05-21T02:07:24.770Z,0
2017-05-21T02:08:35.054Z,0
2017-05-21T02:09:45.333Z,0
2017-05-21T02:10:55.548Z,0
2017-05-21T02:12:05.824Z,0
2017-05-21T02:13:15.488Z,0
2017-05-21T02:14:25.785Z,0
2017-05-21T02:15:35.755Z,0
2017-05-21T02:16:46.278Z,0
2017-05-21T02:17:56.252Z,0
2017-05-21T02:19:06.230Z,0
2017-05-21T02:20:15.262Z,0
2017-05-21T02:21:25.549Z,0
2017-05-21T02:22:35.452Z,0
2017-05-21T02:23:45.432Z,0
2017-05-21T02:24:55.716Z,0
2017-05-21T02:26:06.002Z,0
2017-05-21T02:27:16.276Z,0
2017-05-21T02:28:26.807Z,0
2017-05-21T02:29:37.392Z,0
2017-05-21T02:30:47.683Z,0
2017-05-21T02:31:57.658Z,0
2017-05-21T02:33:07.621Z,0
2017-05-21T02:34:18.161Z,0
2017-05-21T02:35:28.450Z,0
2017-05-21T02:36:38.419Z,0
2017-05-21T02:37:48.693Z,0
2017-05-21T02:38:58.658Z,0
2017-05-21T02:40:09.185Z,0
2017-05-21T02:41:19.462Z,0
2017-05-21T02:42:29.427Z,0
2017-05-21T02:43:39.713Z,0
2017-05-21T02:44:49.677Z,0
2017-05-21T02:46:00.205Z,0
2017-05-21T02:47:09.856Z,0
2017-05-21T02:48:20.140Z,0
2017-05-21T02:49:30.429Z,0
2017-05-21T02:50:40.395Z,0
2017-05-21T02:51:50.929Z,0
2017-05-21T02:53:01.220Z,0
2017-05-21T02:54:11.499Z,0
2017-05-21T02:55:21.791Z,0
2017-05-21T02:56:32.074Z,0
2017-05-21T02:57:42.610Z,0
2017-05-21T02:58:52.591Z,4
2017-05-21T03:00:02.565Z,4
2017-05-21T03:01:12.846Z,4
2017-05-21T03:02:23.133Z,4
2017-05-21T03:03:33.665Z,0
2017-05-21T03:04:43.330Z,0
2017-05-21T03:05:53.614Z,0
2017-05-21T03:07:03.595Z,0
2017-05-21T03:08:13.565Z,4
2017-05-21T03:09:23.793Z,4
2017-05-21T03:10:33.770Z,4
2017-05-21T03:11:44.071Z,4
2017-05-21T03:12:54.356Z,4
2017-05-21T03:14:04.642Z,4
2017-05-21T03:15:15.167Z,4
2017-05-21T03:16:25.449Z,4
2017-05-21T03:17:35.735Z,4
2017-05-21T03:18:46.019Z,4
2017-05-21T03:19:56.310Z,8
2017-05-21T03:21:06.901Z,4
2017-05-21T03:22:16.560Z,4
2017-05-21T03:23:26.599Z,8
2017-05-21T03:24:36.877Z,8
2017-05-21T03:25:46.227Z,8
2017-05-21T03:26:56.756Z,12
2017-05-21T03:28:07.033Z,12
2017-05-21T03:29:17.311Z,12
2017-05-21T03:30:27.283Z,12
2017-05-21T03:31:37.258Z,12
2017-05-21T03:32:47.478Z,12
2017-05-21T03:33:57.769Z,12
2017-05-21T03:35:08.059Z,16
2017-05-21T03:36:18.337Z,16
2017-05-21T03:37:28.619Z,16
2017-05-21T03:38:39.153Z,16
2017-05-21T03:39:49.128Z,16
2017-05-21T03:40:59.417Z,24
2017-05-21T03:42:09.391Z,24
2017-05-21T03:43:19.367Z,24
2017-05-21T03:44:29.904Z,24
2017-05-21T03:45:39.883Z,20
2017-05-21T03:46:50.169Z,24
2017-05-21T03:48:00.451Z,24
2017-05-21T03:49:10.734Z,24
2017-05-21T03:50:21.266Z,24
2017-05-21T03:51:31.552Z,24
2017-05-21T03:52:41.520Z,28
2017-05-21T03:53:51.491Z,36
2017-05-21T03:55:01.456Z,44
2017-05-21T03:56:11.988Z,48
2017-05-21T03:57:22.271Z,48
2017-05-21T03:58:32.571Z,40
2017-05-21T03:59:42.857Z,40
2017-05-21T04:00:52.530Z,40
2017-05-21T04:02:03.105Z,36
2017-05-21T04:03:13.390Z,40
2017-05-21T04:04:23.682Z,36
2017-05-21T04:05:33.957Z,40
2017-05-21T04:06:43.923Z,40
2017-05-21T04:07:54.445Z,40
2017-05-21T04:09:04.425Z,40
2017-05-21T04:10:14.703Z,44
2017-05-21T04:11:24.982Z,44
2017-05-21T04:12:35.262Z,44
2017-05-21T04:13:45.793Z,48
2017-05-21T04:14:56.081Z,52
2017-05-21T04:16:06.061Z,60
2017-05-21T04:17:16.022Z,72
2017-05-21T04:18:26.304Z,80
2017-05-21T04:19:36.518Z,92
2017-05-21T04:20:46.805Z,96
2017-05-21T04:21:57.084Z,104
2017-05-21T04:23:07.365Z,96
2017-05-21T04:24:17.646Z,100
2017-05-21T04:25:28.185Z,108
2017-05-21T04:26:38.460Z,108
2017-05-21T04:27:48.745Z,108
2017-05-21T04:28:58.422Z,112
2017-05-21T04:30:08.721Z,112
2017-05-21T04:31:19.251Z,112
2017-05-21T04:32:29.531Z,112
2017-05-21T04:33:39.832Z,112
2017-05-21T04:34:49.819Z,108
2017-05-21T04:36:00.100Z,108
2017-05-21T04:37:10.324Z,108
2017-05-21T04:38:20.609Z,112
2017-05-21T04:39:30.897Z,108
2017-05-21T04:40:41.241Z,108
2017-05-21T04:41:51.525Z,112
2017-05-21T04:43:01.750Z,116
2017-05-21T04:44:12.025Z,112
2017-05-21T04:45:22.305Z,116
2017-05-21T04:46:32.277Z,116
2017-05-21T04:47:41.947Z,116
2017-05-21T04:48:52.483Z,116
2017-05-21T04:50:02.449Z,116
2017-05-21T04:51:12.733Z,116
2017-05-21T04:52:22.764Z,116
2017-05-21T04:53:32.746Z,120
2017-05-21T04:54:43.275Z,120
2017-05-21T04:55:53.252Z,120
2017-05-21T04:57:03.533Z,116
2017-05-21T04:58:13.821Z,116
2017-05-21T04:59:24.106Z,116
2017-05-21T05:00:34.327Z,120
2017-05-21T05:01:44.293Z,120
2017-05-21T05:02:54.587Z,116
2017-05-21T05:04:04.560Z,120
2017-05-21T05:05:14.531Z,116
2017-05-21T05:06:24.753Z,120
2017-05-21T05:07:34.727Z,120
2017-05-21T05:08:45.013Z,120
2017-05-21T05:09:55.294Z,120
2017-05-21T05:11:05.576Z,124
2017-05-21T05:12:16.103Z,124
2017-05-21T05:13:26.382Z,120
2017-05-21T05:14:36.662Z,124
2017-05-21T05:15:46.313Z,124
2017-05-21T05:16:56.278Z,124
2017-05-21T05:18:06.506Z,124
2017-05-21T05:19:16.788Z,124
2017-05-21T05:20:27.076Z,128
2017-05-21T05:21:37.358Z,128
2017-05-21T05:22:47.645Z,124
2017-05-21T05:23:57.866Z,128
2017-05-21T05:25:07.846Z,128
2017-05-21T05:26:17.825Z,128
2017-05-21T05:27:28.106Z,128
2017-05-21T05:28:38.384Z,128
2017-05-21T05:29:48.918Z,128
2017-05-21T05:30:58.587Z,128
2017-05-21T05:32:08.874Z,124
2017-05-21T05:33:19.162Z,124
2017-05-21T05:34:29.451Z,128
2017-05-21T05:35:39.980Z,128
2017-05-21T05:36:50.263Z,128
2017-05-21T05:38:00.559Z,128
2017-05-21T05:39:10.535Z,128
2017-05-21T05:40:20.824Z,124
2017-05-21T05:41:31.355Z,124
2017-05-21T05:42:41.640Z,124
2017-05-21T05:43:51.932Z,124
2017-05-21T05:45:02.215Z,124
2017-05-21T05:46:12.496Z,128
2017-05-21T05:47:23.029Z,128
2017-05-21T05:48:33.241Z,128
2017-05-21T05:49:43.537Z,128
2017-05-21T05:50:53.832Z,128
2017-05-21T05:52:04.137Z,132
2017-05-21T05:53:14.677Z,128
2017-05-21T05:54:24.956Z,128
2017-05-21T05:55:35.266Z,128
2017-05-21T05:56:45.555Z,128
2017-05-21T05:57:55.850Z,128
2017-05-21T05:59:06.380Z,128
2017-05-21T06:00:16.052Z,128
2017-05-21T06:01:26.336Z,128
2017-05-21T06:02:36.619Z,124
2017-05-21T06:03:46.922Z,124
2017-05-21T06:04:57.508Z,124
2017-05-21T06:06:07.184Z,124
2017-05-21T06:07:16.857Z,124
2017-05-21T06:08:26.833Z,124
2017-05-21T06:09:37.128Z,120
2017-05-21T06:10:47.668Z,124
2017-05-21T06:11:57.969Z,120
2017-05-21T06:13:08.252Z,120
2017-05-21T06:14:18.548Z,120
2017-05-21T06:15:28.834Z,116
2017-05-21T06:16:39.057Z,116
2017-05-21T06:17:49.341Z,116
2017-05-21T06:18:59.319Z,116
2017-05-21T06:20:09.604Z,116
2017-05-21T06:21:19.573Z,116
2017-05-21T06:22:30.114Z,116
2017-05-21T06:23:40.099Z,116
2017-05-21T06:24:49.779Z,112
2017-05-21T06:26:00.057Z,112
2017-05-21T06:27:10.026Z,112
2017-05-21T06:28:20.575Z,112
2017-05-21T06:29:30.866Z,112
2017-05-21T06:30:41.152Z,112
2017-05-21T06:31:51.187Z,112
2017-05-21T06:33:01.189Z,108
2017-05-21T06:34:11.715Z,112
2017-05-21T06:35:21.997Z,108
2017-05-21T06:36:31.962Z,108
2017-05-21T06:37:41.632Z,108
2017-05-21T06:38:51.598Z,108
2017-05-21T06:40:02.145Z,108
2017-05-21T06:41:12.116Z,108
2017-05-21T06:42:22.192Z,108
2017-05-21T06:43:32.494Z,108
2017-05-21T06:44:42.533Z,104
2017-05-21T06:45:52.755Z,104
2017-05-21T06:47:02.730Z,104
2017-05-21T06:48:13.037Z,104
2017-05-21T06:49:23.331Z,104
2017-05-21T06:50:33.628Z,104
2017-05-21T06:51:44.167Z,108
2017-05-21T06:52:54.147Z,100
2017-05-21T06:54:04.446Z,104
2017-05-21T06:55:14.437Z,104
2017-05-21T06:56:24.461Z,104
2017-05-21T06:57:35.001Z,104
2017-05-21T06:58:45.288Z,100
2017-05-21T06:59:55.257Z,100
2017-05-21T07:01:05.549Z,104
2017-05-21T07:02:15.537Z,100
2017-05-21T07:03:26.077Z,100
2017-05-21T07:04:36.359Z,100
2017-05-21T07:05:46.327Z,100
2017-05-21T07:06:56.617Z,100
2017-05-21T07:08:06.595Z,100
2017-05-21T07:09:16.824Z,100
2017-05-21T07:10:27.119Z,96
2017-05-21T07:11:37.397Z,96
2017-05-21T07:12:47.380Z,100
2017-05-21T07:13:57.666Z,100
2017-05-21T07:15:08.234Z,96
2017-05-21T07:16:18.526Z,96
2017-05-21T07:17:28.870Z,96
2017-05-21T07:18:38.854Z,96
2017-05-21T07:19:49.157Z,96
2017-05-21T07:20:59.374Z,96
2017-05-21T07:22:09.670Z,96
2017-05-21T07:23:19.645Z,96
2017-05-21T07:24:29.938Z,96
2017-05-21T07:25:40.222Z,96
2017-05-21T07:26:50.441Z,96
2017-05-21T07:28:00.727Z,96
2017-05-21T07:29:11.012Z,96
2017-05-21T07:30:21.300Z,96
2017-05-21T07:31:31.583Z,92
2017-05-21T07:32:41.824Z,92
2017-05-21T07:33:51.800Z,92
2017-05-21T07:35:01.802Z,96
2017-05-21T07:36:12.084Z,88
2017-05-21T07:37:22.064Z,92
2017-05-21T07:38:32.607Z,92
2017-05-21T07:39:42.886Z,92
2017-05-21T07:40:53.178Z,92
2017-05-21T07:42:03.466Z,92
2017-05-21T07:43:13.774Z,92
2017-05-21T07:44:24.315Z,92
2017-05-21T07:45:34.605Z,92
2017-05-21T07:46:44.278Z,92
2017-05-21T07:47:54.269Z,92
2017-05-21T07:49:04.262Z,92
2017-05-21T07:50:14.792Z,92
2017-05-21T07:51:25.067Z,96
2017-05-21T07:52:35.358Z,96
2017-05-21T07:53:45.337Z,92
2017-05-21T07:54:55.316Z,92
2017-05-21T07:56:05.853Z,88
2017-05-21T07:57:16.139Z,92
2017-05-21T07:58:26.430Z,96
2017-05-21T07:59:36.712Z,92
2017-05-21T08:00:46.682Z,96
2017-05-21T08:01:57.225Z,92
2017-05-21T08:03:07.512Z,92
2017-05-21T08:04:17.802Z,92
2017-05-21T08:05:28.083Z,92
2017-05-21T08:06:38.368Z,92
2017-05-21T08:07:48.901Z,92
2017-05-21T08:08:59.189Z,96
2017-05-21T08:10:09.469Z,92
2017-05-21T08:11:19.145Z,92
2017-05-21T08:12:29.434Z,92
2017-05-21T08:13:39.352Z,48
2017-05-21T08:14:49.333Z,88
2017-05-21T08:15:59.310Z,92
2017-05-21T08:17:09.598Z,92
2017-05-21T08:18:19.914Z,92
2017-05-21T08:19:30.170Z,92
2017-05-21T08:20:40.146Z,96
2017-05-21T08:21:50.501Z,92
2017-05-21T08:23:00.786Z,80
2017-05-21T08:24:10.457Z,60
2017-05-21T08:25:20.987Z,96
2017-05-21T08:26:31.271Z,96
2017-05-21T08:27:41.564Z,88
2017-05-21T08:28:51.869Z,88
2017-05-21T08:30:02.166Z,88
2017-05-21T08:31:12.707Z,64
2017-05-21T08:32:22.731Z,96
2017-05-21T08:33:32.408Z,84
2017-05-21T08:34:42.706Z,92
2017-05-21T08:35:52.983Z,80
2017-05-21T08:37:03.528Z,52
2017-05-21T08:38:13.827Z,56
2017-05-21T08:39:23.798Z,80
2017-05-21T08:40:33.783Z,60
2017-05-21T08:41:43.446Z,92
2017-05-21T08:42:53.681Z,88
2017-05-21T08:44:03.975Z,92
2017-05-21T08:45:14.279Z,92
2017-05-21T08:46:24.560Z,92
2017-05-21T08:47:34.850Z,80
2017-05-21T08:48:45.410Z,96
2017-05-21T08:49:55.387Z,92
2017-05-21T08:51:05.687Z,96
2017-05-21T08:52:15.982Z,96
2017-05-21T08:53:25.956Z,48
2017-05-21T08:54:36.181Z,48
2017-05-21T08:55:46.477Z,48
2017-05-21T08:56:56.779Z,48
2017-05-21T08:58:07.072Z,92
2017-05-21T08:59:17.360Z,96
2017-05-21T09:00:27.900Z,88
2017-05-21T09:01:38.177Z,92
2017-05-21T09:02:48.473Z,92
2017-05-21T09:03:58.775Z,96
2017-05-21T09:05:09.067Z,64
2017-05-21T09:06:19.602Z,76
2017-05-21T09:07:29.885Z,88
2017-05-21T09:08:39.548Z,92
2017-05-21T09:09:49.839Z,92
2017-05-21T09:11:00.121Z,88
2017-05-21T09:12:10.665Z,88
2017-05-21T09:13:20.015Z,44
2017-05-21T09:14:30.338Z,76
2017-05-21T09:15:40.628Z,84
2017-05-21T09:16:50.921Z,80
2017-05-21T09:18:01.465Z,92
2017-05-21T09:19:11.753Z,92
2017-05-21T09:20:22.049Z,88
2017-05-21T09:21:32.333Z,92
2017-05-21T09:22:42.632Z,92
2017-05-21T09:23:53.187Z,92
2017-05-21T09:25:03.161Z,92
2017-05-21T09:26:13.142Z,92
2017-05-21T09:27:23.424Z,96
2017-05-21T09:28:33.725Z,92
2017-05-21T09:29:43.954Z,92
2017-05-21T09:30:54.252Z,96
2017-05-21T09:32:04.534Z,92
2017-05-21T09:33:14.826Z,92
2017-05-21T09:34:25.130Z,52
2017-05-21T09:35:35.667Z,40
2017-05-21T09:36:45.638Z,48
2017-05-21T09:37:55.917Z,96
2017-05-21T09:39:06.202Z,96
2017-05-21T09:40:16.177Z,96
2017-05-21T09:41:26.721Z,96
2017-05-21T09:42:36.690Z,100
2017-05-21T09:43:46.673Z,100
2017-05-21T09:44:56.967Z,100
2017-05-21T09:46:06.643Z,100
2017-05-21T09:47:17.174Z,100
2017-05-21T09:48:27.460Z,104
2017-05-21T09:49:37.748Z,56
2017-05-21T09:50:48.029Z,52
2017-05-21T09:51:58.301Z,48
2017-05-21T09:53:08.225Z,48
2017-05-21T09:54:18.520Z,48
2017-05-21T09:55:28.487Z,48
2017-05-21T09:56:38.771Z,44
2017-05-21T09:57:49.074Z,52
2017-05-21T09:58:59.620Z,48
2017-05-21T10:00:09.280Z,48
2017-05-21T10:01:19.561Z,48
2017-05-21T10:02:29.556Z,104
2017-05-21T10:03:39.843Z,104
2017-05-21T10:04:50.070Z,104
2017-05-21T10:06:00.347Z,64
2017-05-21T10:07:10.637Z,108
2017-05-21T10:08:20.635Z,108
2017-05-21T10:09:30.955Z,60
2017-05-21T10:10:41.500Z,108
2017-05-21T10:11:51.472Z,64
2017-05-21T10:13:01.499Z,64
2017-05-21T10:14:11.162Z,92
2017-05-21T10:15:21.440Z,100
2017-05-21T10:16:31.674Z,104
2017-05-21T10:17:41.659Z,104
2017-05-21T10:18:51.629Z,104
2017-05-21T10:20:01.925Z,108
2017-05-21T10:21:12.213Z,108
2017-05-21T10:22:22.445Z,108
2017-05-21T10:23:32.739Z,56
2017-05-21T10:24:43.032Z,52
2017-05-21T10:25:53.317Z,48
2017-05-21T10:27:02.978Z,48
2017-05-21T10:28:13.555Z,48
2017-05-21T10:29:23.540Z,48
2017-05-21T10:30:33.893Z,48
2017-05-21T10:31:44.179Z,96
2017-05-21T10:32:54.486Z,100
2017-05-21T10:34:05.025Z,100
2017-05-21T10:35:15.325Z,104
2017-05-21T10:36:25.012Z,104
2017-05-21T10:37:35.002Z,104
2017-05-21T10:38:44.742Z,104
2017-05-21T10:39:55.285Z,104
2017-05-21T10:41:05.600Z,104
2017-05-21T10:42:15.899Z,104
2017-05-21T10:43:26.198Z,104
2017-05-21T10:44:36.489Z,104
2017-05-21T10:45:47.040Z,108
2017-05-21T10:46:57.316Z,108
2017-05-21T10:48:07.602Z,104
2017-05-21T10:49:17.902Z,56
2017-05-21T10:50:27.875Z,52
2017-05-21T10:51:38.400Z,52
2017-05-21T10:52:48.381Z,60
2017-05-21T10:53:58.380Z,52
2017-05-21T10:55:08.050Z,48
2017-05-21T10:56:18.338Z,56
2017-05-21T10:57:28.557Z,96
2017-05-21T10:58:38.219Z,96
2017-05-21T10:59:48.563Z,96
2017-05-21T11:00:58.848Z,92
2017-05-21T11:02:09.142Z,96
2017-05-21T11:03:19.665Z,96
2017-05-21T11:04:29.959Z,92
2017-05-21T11:05:40.261Z,100
2017-05-21T11:06:50.543Z,100
2017-05-21T11:08:00.832Z,100
2017-05-21T11:09:11.379Z,92
2017-05-21T11:10:21.364Z,60
2017-05-21T11:11:31.337Z,88
2017-05-21T11:12:41.617Z,88
2017-05-21T11:13:51.925Z,56
2017-05-21T11:15:02.481Z,52
2017-05-21T11:16:12.777Z,52
2017-05-21T11:17:23.088Z,48
2017-05-21T11:18:33.372Z,48
2017-05-21T11:19:43.654Z,48
2017-05-21T11:20:53.871Z,48
2017-05-21T11:22:04.164Z,44
2017-05-21T11:23:14.449Z,48
2017-05-21T11:24:24.750Z,48
2017-05-21T11:25:35.043Z,48
2017-05-21T11:26:45.584Z,92
2017-05-21T11:27:55.873Z,88
2017-05-21T11:29:05.864Z,92
2017-05-21T11:30:15.854Z,48
2017-05-21T11:31:26.131Z,48
2017-05-21T11:32:36.354Z,92
2017-05-21T11:33:46.331Z,96
2017-05-21T11:34:55.992Z,92
2017-05-21T11:36:06.276Z,92
2017-05-21T11:37:16.563Z,96
2017-05-21T11:38:27.104Z,92
2017-05-21T11:39:37.409Z,92
2017-05-21T11:40:47.788Z,92
2017-05-21T11:41:57.446Z,96
2017-05-21T11:43:07.107Z,96
2017-05-21T11:44:17.653Z,92
2017-05-21T11:45:27.959Z,92
2017-05-21T11:46:37.622Z,96
2017-05-21T11:47:47.917Z,92
2017-05-21T11:48:58.211Z,92
2017-05-21T11:50:08.754Z,92
2017-05-21T11:51:19.034Z,92
2017-05-21T11:52:29.326Z,92
2017-05-21T11:53:39.618Z,84
2017-05-21T11:54:49.970Z,60
2017-05-21T11:56:00.516Z,64
2017-05-21T11:57:10.486Z,92
2017-05-21T11:58:20.457Z,92
2017-05-21T11:59:30.462Z,56
2017-05-21T12:00:40.737Z,56
2017-05-21T12:01:50.650Z,68
2017-05-21T12:03:00.329Z,52
2017-05-21T12:04:10.303Z,48
2017-05-21T12:05:20.597Z,48
2017-05-21T12:06:30.963Z,44
2017-05-21T12:07:41.198Z,48
2017-05-21T12:08:51.489Z,52
2017-05-21T12:10:01.794Z,48
2017-05-21T12:11:11.779Z,68
2017-05-21T12:12:22.071Z,84
2017-05-21T12:13:32.606Z,88
2017-05-21T12:14:42.583Z,84
2017-05-21T12:15:52.573Z,88
2017-05-21T12:17:02.861Z,88
2017-05-21T12:18:12.843Z,88
2017-05-21T12:19:23.392Z,92
2017-05-21T12:20:33.681Z,92
2017-05-21T12:21:43.966Z,88
2017-05-21T12:22:54.254Z,72
2017-05-21T12:24:04.553Z,60
2017-05-21T12:25:15.089Z,52
2017-05-21T12:26:25.453Z,52
2017-05-21T12:27:35.129Z,52
2017-05-21T12:28:45.112Z,52
2017-05-21T12:29:55.402Z,48
2017-05-21T12:31:05.951Z,48
2017-05-21T12:32:16.238Z,52
2017-05-21T12:33:26.208Z,52
2017-05-21T12:34:36.516Z,84
2017-05-21T12:35:46.819Z,84
2017-05-21T12:36:56.732Z,56
2017-05-21T12:38:06.709Z,48
2017-05-21T12:39:17.026Z,48
2017-05-21T12:40:27.318Z,52
2017-05-21T12:41:37.634Z,48
2017-05-21T12:42:47.554Z,52
2017-05-21T12:43:57.841Z,72
2017-05-21T12:45:08.134Z,84
2017-05-21T12:46:18.428Z,84
2017-05-21T12:47:28.424Z,84
2017-05-21T12:48:38.958Z,84
2017-05-21T12:49:48.943Z,48
2017-05-21T12:50:58.933Z,52
2017-05-21T12:52:09.223Z,48
2017-05-21T12:53:19.523Z,48
2017-05-21T12:54:29.753Z,48
2017-05-21T12:55:40.044Z,48
2017-05-21T12:56:50.328Z,44
2017-05-21T12:58:00.621Z,44
2017-05-21T12:59:10.918Z,48
2017-05-21T13:00:21.453Z,72
2017-05-21T13:01:31.441Z,80
2017-05-21T13:02:41.756Z,48
2017-05-21T13:03:52.040Z,48
2017-05-21T13:05:02.023Z,60
2017-05-21T13:06:12.255Z,48
2017-05-21T13:07:22.235Z,52
2017-05-21T13:08:32.531Z,80
2017-05-21T13:09:42.209Z,76
2017-05-21T13:10:52.204Z,76
2017-05-21T13:12:02.444Z,76
2017-05-21T13:13:12.738Z,76
2017-05-21T13:14:22.723Z,76
2017-05-21T13:15:33.007Z,80
2017-05-21T13:16:43.299Z,80
2017-05-21T13:17:53.839Z,80
2017-05-21T13:19:04.149Z,80
2017-05-21T13:20:14.127Z,76
2017-05-21T13:21:24.422Z,80
2017-05-21T13:22:34.700Z,80
2017-05-21T13:23:45.686Z,80
2017-05-21T13:24:55.972Z,80
2017-05-21T13:26:05.960Z,76
2017-05-21T13:27:15.328Z,80
2017-05-21T13:28:25.327Z,76
2017-05-21T13:29:35.559Z,76
2017-05-21T13:30:45.873Z,76
2017-05-21T13:31:56.172Z,76
2017-05-21T13:33:06.472Z,76
2017-05-21T13:34:16.760Z,76
2017-05-21T13:35:27.298Z,76
2017-05-21T13:36:37.587Z,76
2017-05-21T13:37:47.884Z,76
2017-05-21T13:38:58.160Z,76
2017-05-21T13:40:08.467Z,72
2017-05-21T13:41:19.022Z,76
2017-05-21T13:42:28.993Z,76
2017-05-21T13:43:38.973Z,76
2017-05-21T13:44:48.962Z,72
2017-05-21T13:45:59.248Z,72
2017-05-21T13:47:09.780Z,72
2017-05-21T13:48:19.764Z,68
2017-05-21T13:49:29.739Z,72
2017-05-21T13:50:40.031Z,72
2017-05-21T13:51:50.001Z,64
2017-05-21T13:53:00.542Z,68
2017-05-21T13:54:10.531Z,68
2017-05-21T13:55:20.515Z,68
2017-05-21T13:56:30.501Z,60
2017-05-21T13:57:40.802Z,40
2017-05-21T13:58:51.019Z,40
2017-05-21T14:00:01.324Z,40
2017-05-21T14:01:11.313Z,40
2017-05-21T14:02:21.605Z,40
2017-05-21T14:03:31.913Z,40
2017-05-21T14:04:42.451Z,40
2017-05-21T14:05:52.736Z,48
2017-05-21T14:07:03.087Z,40
2017-05-21T14:08:13.059Z,52
2017-05-21T14:09:23.366Z,56
2017-05-21T14:10:33.899Z,60
2017-05-21T14:11:43.868Z,60
2017-05-21T14:12:53.529Z,64
2017-05-21T14:14:03.821Z,60
2017-05-21T14:15:14.109Z,48
2017-05-21T14:16:24.664Z,40
2017-05-21T14:17:34.636Z,40
2017-05-21T14:18:44.955Z,40
2017-05-21T14:19:54.932Z,36
2017-05-21T14:21:05.225Z,40
2017-05-21T14:22:15.468Z,60
2017-05-21T14:23:25.446Z,56
2017-05-21T14:24:35.726Z,56
2017-05-21T14:25:46.055Z,56
2017-05-21T14:26:56.362Z,56
2017-05-21T14:28:06.600Z,56
2017-05-21T14:29:16.927Z,56
2017-05-21T14:30:26.905Z,56
2017-05-21T14:31:36.570Z,60
2017-05-21T14:32:46.886Z,60
2017-05-21T14:33:57.435Z,56
2017-05-21T14:35:07.403Z,60
2017-05-21T14:36:17.721Z,56
2017-05-21T14:37:27.713Z,60
2017-05-21T14:38:38.001Z,56
2017-05-21T14:39:48.236Z,56
2017-05-21T14:40:58.221Z,52
2017-05-21T14:42:08.509Z,48
2017-05-21T14:43:18.478Z,36
2017-05-21T14:44:28.452Z,40
2017-05-21T14:45:38.983Z,40
2017-05-21T14:46:49.002Z,52
2017-05-21T14:47:58.709Z,44
2017-05-21T14:49:08.688Z,52
2017-05-21T14:50:18.974Z,40
2017-05-21T14:51:29.194Z,48
2017-05-21T14:52:39.481Z,52
2017-05-21T14:53:49.469Z,48
2017-05-21T14:54:59.757Z,52
2017-05-21T14:56:10.059Z,48
2017-05-21T14:57:20.281Z,48
2017-05-21T14:58:30.580Z,40
2017-05-21T14:59:40.237Z,36
2017-05-21T15:00:50.276Z,32
2017-05-21T15:02:00.573Z,32
2017-05-21T15:03:11.114Z,32
2017-05-21T15:04:21.405Z,40
2017-05-21T15:05:31.375Z,44
2017-05-21T15:06:41.660Z,48
2017-05-21T15:07:51.635Z,36
2017-05-21T15:09:01.864Z,32
2017-05-21T15:10:12.148Z,28
2017-05-21T15:11:22.132Z,32
2017-05-21T15:12:32.422Z,28
2017-05-21T15:13:42.408Z,32
2017-05-21T15:14:52.328Z,32
2017-05-21T15:16:01.996Z,28
2017-05-21T15:17:11.967Z,28
2017-05-21T15:18:22.248Z,32
2017-05-21T15:19:32.235Z,32
2017-05-21T15:20:42.780Z,32
2017-05-21T15:21:52.751Z,32
2017-05-21T15:23:03.046Z,28
2017-05-21T15:24:13.023Z,28
2017-05-21T15:25:23.018Z,32
2017-05-21T15:26:33.566Z,32
2017-05-21T15:27:43.856Z,36
2017-05-21T15:28:54.155Z,32
2017-05-21T15:30:04.158Z,28
2017-05-21T15:31:13.819Z,32
2017-05-21T15:32:24.046Z,32
2017-05-21T15:33:33.709Z,32
2017-05-21T15:34:44.012Z,32
2017-05-21T15:35:54.303Z,28
2017-05-21T15:37:04.287Z,28
2017-05-21T15:38:14.825Z,32
2017-05-21T15:39:25.185Z,32
2017-05-21T15:40:35.488Z,36
2017-05-21T15:41:45.775Z,28
2017-05-21T15:42:56.056Z,28
2017-05-21T15:44:06.645Z,28
2017-05-21T15:45:16.931Z,28
2017-05-21T15:46:27.218Z,28
2017-05-21T15:47:37.195Z,28
2017-05-21T15:48:47.192Z,36
2017-05-21T15:49:57.747Z,36
2017-05-21T15:51:08.024Z,36
2017-05-21T15:52:18.320Z,40
2017-05-21T15:53:28.607Z,36
2017-05-21T15:54:38.906Z,36
2017-05-21T15:55:49.461Z,28
2017-05-21T15:56:59.744Z,28
2017-05-21T15:58:10.033Z,28
2017-05-21T15:59:20.336Z,28
2017-05-21T16:00:30.627Z,28
2017-05-21T16:01:41.178Z,28
2017-05-21T16:02:51.174Z,28
2017-05-21T16:04:01.169Z,28
2017-05-21T16:05:11.174Z,28
2017-05-21T16:06:20.850Z,28
2017-05-21T16:07:31.385Z,24
2017-05-21T16:08:41.683Z,28
2017-05-21T16:09:51.683Z,28
2017-05-21T16:11:01.989Z,24
2017-05-21T16:12:11.992Z,24
2017-05-21T16:13:22.522Z,24
2017-05-21T16:14:32.817Z,28
2017-05-21T16:15:42.802Z,28
2017-05-21T16:16:52.797Z,28
2017-05-21T16:18:03.084Z,28
2017-05-21T16:19:13.317Z,28
2017-05-21T16:20:23.612Z,28
2017-05-21T16:21:33.601Z,32
2017-05-21T16:22:43.911Z,32
2017-05-21T16:23:54.218Z,28
2017-05-21T16:25:04.448Z,28
2017-05-21T16:26:14.730Z,36
2017-05-21T16:27:25.014Z,36
2017-05-21T16:28:35.305Z,32
2017-05-21T16:29:45.606Z,36
2017-05-21T16:30:55.828Z,32
2017-05-21T16:32:05.733Z,36
2017-05-21T16:33:16.016Z,32
2017-05-21T16:34:26.252Z,36
2017-05-21T16:35:36.535Z,32
2017-05-21T16:36:47.086Z,32
2017-05-21T16:37:57.377Z,32
2017-05-21T16:39:07.683Z,32
2017-05-21T16:40:17.713Z,28
2017-05-21T16:41:27.702Z,28